Wetterstation Vordersexau
Wetterdaten: Woche 28.08.23 - 03.09.23 (KW35)
Datum Zeit Temp. A. Feuchte A. Luftdruck Regen Wind Richtung Taupunkt Windchill Windben
28.08.2023 00:00 14,4 C 97 % 1009,1 hPa 0,0 l/m 0,0 km/h (0 Bft) N 13,9 C 14,4 C 0,0 km/h (0 Bft)
28.08.2023 01:00 14,2 C 98 % 1009,0 hPa 0,0 l/m 0,0 km/h (0 Bft) O-SO 13,9 C 14,2 C 0,0 km/h (0 Bft)
28.08.2023 02:00 14,0 C 98 % 1008,6 hPa 0,0 l/m 1,1 km/h (1 Bft) N 13,7 C 14,0 C 2,5 km/h (1 Bft)
28.08.2023 03:00 13,9 C 98 % 1008,0 hPa 0,0 l/m 0,0 km/h (0 Bft) N 13,6 C 13,9 C 0,0 km/h (0 Bft)
28.08.2023 04:00 13,9 C 97 % 1007,6 hPa 0,0 l/m 0,0 km/h (0 Bft) O-SO 13,4 C 13,9 C 2,5 km/h (1 Bft)
28.08.2023 05:00 13,7 C 97 % 1007,0 hPa 0,0 l/m 1,1 km/h (1 Bft) N 13,2 C 13,7 C 2,5 km/h (1 Bft)
28.08.2023 06:00 13,6 C 97 % 1006,6 hPa 0,0 l/m 0,0 km/h (0 Bft) N 13,1 C 13,6 C 2,5 km/h (1 Bft)
28.08.2023 07:00 13,6 C 97 % 1006,1 hPa 0,0 l/m 0,0 km/h (0 Bft) N 13,1 C 13,6 C 0,0 km/h (0 Bft)
28.08.2023 08:00 13,5 C 98 % 1006,1 hPa 0,0 l/m 0,0 km/h (0 Bft) N 13,2 C 13,5 C 0,0 km/h (0 Bft)
28.08.2023 09:00 13,7 C 97 % 1006,0 hPa 0,0 l/m 0,0 km/h (0 Bft) N 13,2 C 13,7 C 2,5 km/h (1 Bft)
28.08.2023 10:00 14,2 C 95 % 1005,8 hPa 0,0 l/m 0,0 km/h (0 Bft) O-SO 13,4 C 14,2 C 2,5 km/h (1 Bft)
28.08.2023 11:00 14,5 C 96 % 1006,1 hPa 0,0 l/m 1,1 km/h (1 Bft) N 13,9 C 14,5 C 2,5 km/h (1 Bft)
28.08.2023 12:00 14,8 C 94 % 1006,1 hPa 0,0 l/m 0,0 km/h (0 Bft) NW 13,8 C 14,8 C 2,5 km/h (1 Bft)
28.08.2023 13:00 16,0 C 90 % 1005,6 hPa 0,0 l/m 2,5 km/h (1 Bft) NW 14,4 C 16,0 C 6,1 km/h (2 Bft)
28.08.2023 14:00 15,7 C 90 % 1005,6 hPa 0,0 l/m 5,0 km/h (1 Bft) NO 14,1 C 15,7 C 7,2 km/h (2 Bft)
28.08.2023 15:00 16,0 C 91 % 1005,6 hPa 0,0 l/m 2,5 km/h (1 Bft) NO 14,5 C 16,0 C 6,1 km/h (2 Bft)
28.08.2023 16:00 15,7 C 90 % 1005,6 hPa 0,3 l/m 1,1 km/h (1 Bft) N 14,1 C 15,7 C 3,6 km/h (1 Bft)
28.08.2023 17:00 14,6 C 94 % 1005,9 hPa 1,2 l/m 0,0 km/h (0 Bft) N 13,6 C 14,6 C 2,5 km/h (1 Bft)
28.08.2023 18:00 14,9 C 92 % 1006,2 hPa 0,9 l/m 0,0 km/h (0 Bft) N 13,6 C 14,9 C 2,5 km/h (1 Bft)
28.08.2023 19:00 14,6 C 93 % 1006,5 hPa 0,0 l/m 0,0 km/h (0 Bft) N 13,5 C 14,6 C 0,0 km/h (0 Bft)
28.08.2023 20:00 14,4 C 96 % 1006,5 hPa 0,6 l/m 0,0 km/h (0 Bft) N 13,8 C 14,4 C 0,0 km/h (0 Bft)
28.08.2023 21:00 14,0 C 98 % 1007,2 hPa 0,6 l/m 0,0 km/h (0 Bft) N 13,7 C 14,0 C 0,0 km/h (0 Bft)
28.08.2023 22:00 13,6 C 99 % 1007,5 hPa 0,6 l/m 0,0 km/h (0 Bft) N 13,4 C 13,6 C 2,5 km/h (1 Bft)
28.08.2023 23:00 13,0 C 99 % 1007,1 hPa 0,3 l/m 0,0 km/h (0 Bft) N 12,8 C 13,0 C 0,0 km/h (0 Bft)
29.08.2023 00:00 12,8 C 99 % 1007,2 hPa 0,0 l/m 0,0 km/h (0 Bft) N 12,6 C 12,8 C 0,0 km/h (0 Bft)
29.08.2023 01:00 12,5 C 99 % 1007,1 hPa 0,0 l/m 0,0 km/h (0 Bft) N 12,3 C 12,5 C 0,0 km/h (0 Bft)
29.08.2023 02:00 12,8 C 99 % 1006,7 hPa 0,3 l/m 0,0 km/h (0 Bft) N 12,6 C 12,8 C 2,5 km/h (1 Bft)
29.08.2023 03:00 12,6 C 99 % 1006,5 hPa 0,3 l/m 0,0 km/h (0 Bft) N 12,4 C 12,6 C 2,5 km/h (1 Bft)
29.08.2023 04:00 12,8 C 99 % 1006,7 hPa 0,0 l/m 0,0 km/h (0 Bft) N 12,6 C 12,8 C 0,0 km/h (0 Bft)
29.08.2023 05:00 12,8 C 99 % 1006,5 hPa 0,9 l/m 0,0 km/h (0 Bft) N 12,6 C 12,8 C 0,0 km/h (0 Bft)
29.08.2023 06:00 12,6 C 99 % 1006,2 hPa 3,9 l/m 0,0 km/h (0 Bft) N 12,4 C 12,6 C 2,5 km/h (1 Bft)
29.08.2023 07:00 12,7 C 98 % 1006,2 hPa 0,0 l/m 0,0 km/h (0 Bft) N 12,4 C 12,7 C 0,0 km/h (0 Bft)
29.08.2023 08:00 12,6 C 99 % 1006,1 hPa 0,0 l/m 0,0 km/h (0 Bft) N 12,4 C 12,6 C 0,0 km/h (0 Bft)
29.08.2023 09:00 12,7 C 98 % 1006,7 hPa 0,0 l/m 0,0 km/h (0 Bft) W 12,4 C 12,7 C 0,0 km/h (0 Bft)
29.08.2023 10:00 12,9 C 97 % 1007,0 hPa 0,0 l/m 2,5 km/h (1 Bft) N 12,4 C 12,9 C 3,6 km/h (1 Bft)
29.08.2023 11:00 14,0 C 94 % 1007,2 hPa 0,0 l/m 0,0 km/h (0 Bft) N 13,0 C 14,0 C 0,0 km/h (0 Bft)
29.08.2023 12:00 14,9 C 91 % 1007,2 hPa 0,0 l/m 0,0 km/h (0 Bft) SW 13,4 C 14,9 C 0,0 km/h (0 Bft)
29.08.2023 13:00 15,9 C 84 % 1007,1 hPa 0,0 l/m 1,1 km/h (1 Bft) S-SW 13,2 C 15,9 C 2,5 km/h (1 Bft)
29.08.2023 14:00 16,7 C 81 % 1006,7 hPa 0,0 l/m 1,1 km/h (1 Bft) SW 13,4 C 16,7 C 2,5 km/h (1 Bft)
29.08.2023 15:00 17,3 C 77 % 1006,9 hPa 0,0 l/m 3,6 km/h (1 Bft) O-SO 13,2 C 17,3 C 3,6 km/h (1 Bft)
29.08.2023 16:00 17,2 C 82 % 1006,5 hPa 0,0 l/m 2,5 km/h (1 Bft) N 14,1 C 17,2 C 7,2 km/h (2 Bft)
29.08.2023 17:00 17,8 C 76 % 1006,5 hPa 0,0 l/m 0,0 km/h (0 Bft) S 13,5 C 17,8 C 3,6 km/h (1 Bft)
29.08.2023 18:00 17,7 C 74 % 1006,5 hPa 0,0 l/m 1,1 km/h (1 Bft) W 13,0 C 17,7 C 2,5 km/h (1 Bft)
29.08.2023 19:00 17,2 C 80 % 1006,8 hPa 0,0 l/m 1,1 km/h (1 Bft) N 13,7 C 17,2 C 2,5 km/h (1 Bft)
29.08.2023 20:00 15,8 C 90 % 1006,9 hPa 0,0 l/m 0,0 km/h (0 Bft) O-SO 14,2 C 15,8 C 2,5 km/h (1 Bft)
29.08.2023 21:00 14,9 C 91 % 1007,1 hPa 0,0 l/m 1,1 km/h (1 Bft) O-SO 13,4 C 14,9 C 3,6 km/h (1 Bft)
29.08.2023 22:00 14,2 C 95 % 1007,4 hPa 0,0 l/m 3,6 km/h (1 Bft) N 13,4 C 14,2 C 6,1 km/h (2 Bft)
29.08.2023 23:00 13,9 C 96 % 1007,6 hPa 0,0 l/m 0,0 km/h (0 Bft) O-SO 13,3 C 13,9 C 3,6 km/h (1 Bft)
30.08.2023 00:00 13,3 C 97 % 1007,1 hPa 0,0 l/m 1,1 km/h (1 Bft) O-SO 12,8 C 13,3 C 2,5 km/h (1 Bft)
30.08.2023 01:00 12,7 C 98 % 1006,6 hPa 0,0 l/m 0,0 km/h (0 Bft) N 12,4 C 12,7 C 0,0 km/h (0 Bft)
30.08.2023 02:00 12,4 C 98 % 1006,4 hPa 0,0 l/m 0,0 km/h (0 Bft) O-SO 12,1 C 12,4 C 0,0 km/h (0 Bft)
30.08.2023 03:00 11,9 C 98 % 1006,1 hPa 0,0 l/m 5,0 km/h (1 Bft) N 11,6 C 11,9 C 9,7 km/h (2 Bft)
30.08.2023 04:00 11,5 C 98 % 1006,0 hPa 0,0 l/m 0,0 km/h (0 Bft) N 11,2 C 11,5 C 0,0 km/h (0 Bft)
30.08.2023 05:00 11,3 C 98 % 1005,8 hPa 0,0 l/m 0,0 km/h (0 Bft) N 11,0 C 11,3 C 0,0 km/h (0 Bft)
30.08.2023 06:00 10,7 C 99 % 1005,6 hPa 0,0 l/m 0,0 km/h (0 Bft) N 10,5 C 10,7 C 0,0 km/h (0 Bft)
30.08.2023 07:00 10,9 C 99 % 1005,7 hPa 0,0 l/m 0,0 km/h (0 Bft) O-SO 10,7 C 10,9 C 0,0 km/h (0 Bft)
30.08.2023 08:00 11,3 C 98 % 1005,8 hPa 0,0 l/m 1,1 km/h (1 Bft) SO 11,0 C 11,3 C 3,6 km/h (1 Bft)
30.08.2023 09:00 12,9 C 94 % 1005,8 hPa 0,0 l/m 3,6 km/h (1 Bft) O-SO 12,0 C 12,9 C 6,1 km/h (2 Bft)
30.08.2023 10:00 14,6 C 89 % 1005,7 hPa 0,0 l/m 3,6 km/h (1 Bft) SW 12,8 C 14,6 C 3,6 km/h (1 Bft)
30.08.2023 11:00 16,6 C 80 % 1005,6 hPa 0,0 l/m 2,5 km/h (1 Bft) NW 13,1 C 16,6 C 3,6 km/h (1 Bft)
30.08.2023 12:00 17,3 C 80 % 1005,7 hPa 0,0 l/m 2,5 km/h (1 Bft) W 13,8 C 17,3 C 6,1 km/h (2 Bft)
30.08.2023 13:00 17,9 C 78 % 1005,7 hPa 0,0 l/m 6,1 km/h (2 Bft) SW 14,0 C 17,9 C 7,2 km/h (2 Bft)
30.08.2023 14:00 18,8 C 74 % 1005,1 hPa 0,0 l/m 6,1 km/h (2 Bft) W-SW 14,1 C 18,8 C 7,2 km/h (2 Bft)
30.08.2023 15:00 21,1 C 62 % 1004,6 hPa 0,0 l/m 3,6 km/h (1 Bft) W 13,5 C 21,1 C 6,1 km/h (2 Bft)
30.08.2023 16:00 20,9 C 64 % 1004,4 hPa 0,0 l/m 6,1 km/h (2 Bft) SW 13,8 C 20,9 C 11,2 km/h (2 Bft)
30.08.2023 17:00 21,2 C 60 % 1004,5 hPa 0,0 l/m 2,5 km/h (1 Bft) SW 13,1 C 21,2 C 3,6 km/h (1 Bft)
30.08.2023 18:00 21,4 C 57 % 1004,4 hPa 0,0 l/m 3,6 km/h (1 Bft) SW 12,5 C 21,4 C 6,1 km/h (2 Bft)
30.08.2023 19:00 21,2 C 59 % 1004,2 hPa 0,0 l/m 2,5 km/h (1 Bft) W-SW 12,9 C 21,2 C 6,1 km/h (2 Bft)
30.08.2023 20:00 19,7 C 60 % 1004,4 hPa 0,0 l/m 7,2 km/h (2 Bft) W-SW 11,7 C 19,4 C 11,2 km/h (2 Bft)
30.08.2023 21:00 18,4 C 66 % 1005,2 hPa 0,0 l/m 3,6 km/h (1 Bft) W 11,9 C 18,4 C 6,1 km/h (2 Bft)
30.08.2023 22:00 18,1 C 69 % 1005,6 hPa 0,0 l/m 1,1 km/h (1 Bft) SW 12,3 C 18,1 C 2,5 km/h (1 Bft)
30.08.2023 23:00 18,4 C 64 % 1006,0 hPa 0,0 l/m 3,6 km/h (1 Bft) N-NW 11,5 C 18,4 C 6,1 km/h (2 Bft)
31.08.2023 00:00 15,6 C 86 % 1007,1 hPa 0,0 l/m 3,6 km/h (1 Bft) N-NW 13,3 C 15,6 C 7,2 km/h (2 Bft)
31.08.2023 01:00 13,7 C 96 % 1007,7 hPa 3,9 l/m 0,0 km/h (0 Bft) O-SO 13,1 C 13,7 C 2,5 km/h (1 Bft)
31.08.2023 02:00 13,7 C 98 % 1007,4 hPa 0,6 l/m 2,5 km/h (1 Bft) O-SO 13,4 C 13,7 C 3,6 km/h (1 Bft)
31.08.2023 03:00 13,3 C 98 % 1007,7 hPa 0,0 l/m 1,1 km/h (1 Bft) N 13,0 C 13,3 C 3,6 km/h (1 Bft)
31.08.2023 04:00 13,0 C 99 % 1007,7 hPa 0,0 l/m 0,0 km/h (0 Bft) N 12,8 C 13,0 C 0,0 km/h (0 Bft)
31.08.2023 05:00 13,1 C 99 % 1008,0 hPa 0,0 l/m 0,0 km/h (0 Bft) O 12,9 C 13,1 C 0,0 km/h (0 Bft)
31.08.2023 06:00 13,4 C 99 % 1008,4 hPa 0,0 l/m 1,1 km/h (1 Bft) O 13,2 C 13,4 C 3,6 km/h (1 Bft)
31.08.2023 07:00 13,4 C 99 % 1009,0 hPa 0,0 l/m 1,1 km/h (1 Bft) N 13,2 C 13,4 C 2,5 km/h (1 Bft)
31.08.2023 08:00 13,6 C 99 % 1009,5 hPa 0,0 l/m 0,0 km/h (0 Bft) N 13,4 C 13,6 C 0,0 km/h (0 Bft)
31.08.2023 09:00 14,2 C 96 % 1009,7 hPa 0,0 l/m 0,0 km/h (0 Bft) W 13,6 C 14,2 C 2,5 km/h (1 Bft)
31.08.2023 10:00 16,0 C 87 % 1010,0 hPa 0,0 l/m 5,0 km/h (1 Bft) W-SW 13,8 C 16,0 C 7,2 km/h (2 Bft)
31.08.2023 11:00 17,4 C 78 % 1010,4 hPa 0,0 l/m 5,0 km/h (1 Bft) SW 13,5 C 17,4 C 7,2 km/h (2 Bft)
31.08.2023 12:00 18,3 C 63 % 1010,7 hPa 0,0 l/m 8,6 km/h (2 Bft) S 11,1 C 17,3 C 11,2 km/h (2 Bft)
31.08.2023 13:00 18,6 C 69 % 1010,7 hPa 0,0 l/m 13,3 km/h (3 Bft) S-SW 12,8 C 16,0 C 18,4 km/h (3 Bft)
31.08.2023 14:00 18,7 C 67 % 1010,6 hPa 0,0 l/m 12,2 km/h (2 Bft) S-SW 12,4 C 16,5 C 18,4 km/h (3 Bft)
31.08.2023 15:00 19,5 C 63 % 1010,5 hPa 0,0 l/m 9,7 km/h (2 Bft) SW 12,3 C 18,2 C 13,3 km/h (3 Bft)
31.08.2023 16:00 20,4 C 63 % 1010,4 hPa 0,0 l/m 6,1 km/h (2 Bft) SW 13,1 C 20,4 C 11,2 km/h (2 Bft)
31.08.2023 17:00 19,6 C 62 % 1010,2 hPa 0,0 l/m 5,0 km/h (1 Bft) W-SW 12,1 C 19,6 C 9,7 km/h (2 Bft)
31.08.2023 18:00 19,8 C 62 % 1010,2 hPa 0,0 l/m 8,6 km/h (2 Bft) SW 12,3 C 18,9 C 13,3 km/h (3 Bft)
31.08.2023 19:00 19,1 C 63 % 1010,2 hPa 0,0 l/m 2,5 km/h (1 Bft) O-SO 11,9 C 19,1 C 3,6 km/h (1 Bft)
31.08.2023 20:00 18,4 C 68 % 1010,1 hPa 0,0 l/m 2,5 km/h (1 Bft) SO 12,4 C 18,4 C 3,6 km/h (1 Bft)
31.08.2023 21:00 17,6 C 70 % 1010,1 hPa 0,0 l/m 3,6 km/h (1 Bft) N 12,1 C 17,6 C 3,6 km/h (1 Bft)
31.08.2023 22:00 16,7 C 81 % 1010,5 hPa 0,0 l/m 0,0 km/h (0 Bft) S-SO 13,4 C 16,7 C 0,0 km/h (0 Bft)
31.08.2023 23:00 18,1 C 70 % 1010,7 hPa 0,0 l/m 6,1 km/h (2 Bft) N 12,5 C 18,1 C 7,2 km/h (2 Bft)
01.09.2023 01:00 18,0 C 73 % 1010,7 hPa 0,0 l/m 3,6 km/h (1 Bft) W-SW 13,1 C 18,0 C 6,1 km/h (2 Bft)
01.09.2023 02:00 19,7 C 65 % 1010,9 hPa 0,0 l/m 8,6 km/h (2 Bft) W-SW 12,9 C 18,8 C 11,2 km/h (2 Bft)
01.09.2023 03:00 19,5 C 66 % 1010,9 hPa 0,0 l/m 9,7 km/h (2 Bft) S-SW 13,0 C 18,2 C 13,3 km/h (3 Bft)
01.09.2023 04:00 18,9 C 73 % 1010,9 hPa 0,0 l/m 7,2 km/h (2 Bft) W 13,9 C 18,5 C 13,3 km/h (3 Bft)
01.09.2023 05:00 18,4 C 77 % 1011,1 hPa 0,0 l/m 7,2 km/h (2 Bft) S 14,3 C 18,0 C 13,3 km/h (3 Bft)
01.09.2023 06:00 17,7 C 85 % 1010,9 hPa 0,0 l/m 3,6 km/h (1 Bft) O-SO 15,1 C 17,7 C 6,1 km/h (2 Bft)
01.09.2023 07:00 17,8 C 83 % 1010,8 hPa 0,0 l/m 2,5 km/h (1 Bft) NO 14,9 C 17,8 C 3,6 km/h (1 Bft)
01.09.2023 08:00 16,1 C 96 % 1010,9 hPa 0,3 l/m 2,5 km/h (1 Bft) NO 15,5 C 16,1 C 3,6 km/h (1 Bft)
01.09.2023 09:00 16,5 C 95 % 1011,2 hPa 0,0 l/m 1,1 km/h (1 Bft) W 15,7 C 16,5 C 2,5 km/h (1 Bft)
01.09.2023 10:00 19,2 C 75 % 1011,3 hPa 0,0 l/m 12,2 km/h (2 Bft) W 14,7 C 17,0 C 18,4 km/h (3 Bft)
01.09.2023 11:00 20,9 C 73 % 1011,7 hPa 0,0 l/m 9,7 km/h (2 Bft) W-SW 15,9 C 19,7 C 14,8 km/h (3 Bft)
01.09.2023 12:00 21,1 C 74 % 1011,9 hPa 0,0 l/m 11,2 km/h (2 Bft) W-SW 16,3 C 19,5 C 14,8 km/h (3 Bft)
01.09.2023 13:00 22,7 C 72 % 1011,7 hPa 0,0 l/m 12,2 km/h (2 Bft) W-NW 17,4 C 21,1 C 17,3 km/h (3 Bft)
01.09.2023 14:00 24,0 C 70 % 1011,7 hPa 0,0 l/m 9,7 km/h (2 Bft) W-SW 18,2 C 23,1 C 14,8 km/h (3 Bft)
01.09.2023 15:00 25,0 C 66 % 1011,4 hPa 0,0 l/m 8,6 km/h (2 Bft) W-NW 18,2 C 24,5 C 11,2 km/h (2 Bft)
01.09.2023 16:00 25,8 C 56 % 1011,0 hPa 0,0 l/m 11,2 km/h (2 Bft) W-NW 16,3 C 24,8 C 17,3 km/h (3 Bft)
01.09.2023 17:00 26,5 C 55 % 1010,7 hPa 0,0 l/m 6,1 km/h (2 Bft) W 16,7 C 26,5 C 9,7 km/h (2 Bft)
01.09.2023 18:00 26,1 C 57 % 1010,6 hPa 0,0 l/m 7,2 km/h (2 Bft) W 16,9 C 25,9 C 9,7 km/h (2 Bft)
01.09.2023 19:00 26,6 C 53 % 1010,5 hPa 0,0 l/m 3,6 km/h (1 Bft) NW 16,2 C 26,6 C 6,1 km/h (2 Bft)
01.09.2023 20:00 25,4 C 58 % 1010,5 hPa 0,0 l/m 2,5 km/h (1 Bft) N 16,5 C 25,4 C 3,6 km/h (1 Bft)
01.09.2023 21:00 20,0 C 80 % 1011,4 hPa 0,0 l/m 2,5 km/h (1 Bft) N 16,4 C 20,0 C 3,6 km/h (1 Bft)
01.09.2023 22:00 19,1 C 83 % 1012,0 hPa 0,0 l/m 0,0 km/h (0 Bft) O-SO 16,1 C 19,1 C 2,5 km/h (1 Bft)
01.09.2023 23:00 17,4 C 89 % 1012,1 hPa 0,0 l/m 1,1 km/h (1 Bft) SO 15,6 C 17,4 C 3,6 km/h (1 Bft)
02.09.2023 00:00 16,6 C 91 % 1012,4 hPa 0,0 l/m 1,1 km/h (1 Bft) SO 15,1 C 16,6 C 2,5 km/h (1 Bft)
02.09.2023 01:00 16,2 C 91 % 1012,6 hPa 0,0 l/m 3,6 km/h (1 Bft) O-SO 14,7 C 16,2 C 6,1 km/h (2 Bft)
02.09.2023 02:00 15,7 C 92 % 1012,9 hPa 0,0 l/m 1,1 km/h (1 Bft) SO 14,4 C 15,7 C 3,6 km/h (1 Bft)
02.09.2023 03:00 15,3 C 93 % 1013,0 hPa 0,0 l/m 1,1 km/h (1 Bft) O-SO 14,2 C 15,3 C 2,5 km/h (1 Bft)
02.09.2023 04:00 14,7 C 94 % 1013,2 hPa 0,0 l/m 1,1 km/h (1 Bft) O-SO 13,7 C 14,7 C 2,5 km/h (1 Bft)
02.09.2023 05:00 14,4 C 95 % 1013,3 hPa 0,0 l/m 1,1 km/h (1 Bft) N 13,6 C 14,4 C 2,5 km/h (1 Bft)
02.09.2023 06:00 14,0 C 95 % 1013,6 hPa 0,0 l/m 0,0 km/h (0 Bft) N 13,2 C 14,0 C 2,5 km/h (1 Bft)
02.09.2023 07:00 13,9 C 96 % 1013,4 hPa 0,0 l/m 0,0 km/h (0 Bft) O-SO 13,3 C 13,9 C 2,5 km/h (1 Bft)
02.09.2023 08:00 13,8 C 95 % 1014,0 hPa 0,0 l/m 1,1 km/h (1 Bft) N 13,0 C 13,8 C 2,5 km/h (1 Bft)
02.09.2023 09:00 15,5 C 92 % 1014,6 hPa 0,0 l/m 0,0 km/h (0 Bft) O-SO 14,2 C 15,5 C 0,0 km/h (0 Bft)
02.09.2023 10:00 19,5 C 80 % 1014,8 hPa 0,0 l/m 1,1 km/h (1 Bft) W-SW 16,0 C 19,5 C 3,6 km/h (1 Bft)
02.09.2023 11:00 20,7 C 77 % 1015,1 hPa 0,0 l/m 2,5 km/h (1 Bft) N 16,5 C 20,7 C 3,6 km/h (1 Bft)
02.09.2023 12:00 23,6 C 71 % 1015,2 hPa 0,0 l/m 0,0 km/h (0 Bft) S 18,0 C 23,6 C 0,0 km/h (0 Bft)
02.09.2023 13:00 25,3 C 64 % 1014,8 hPa 0,0 l/m 2,5 km/h (1 Bft) W-NW 18,0 C 25,3 C 3,6 km/h (1 Bft)
02.09.2023 14:00 27,6 C 55 % 1014,3 hPa 0,0 l/m 5,0 km/h (1 Bft) W-SW 17,7 C 27,6 C 7,2 km/h (2 Bft)
02.09.2023 15:00 28,3 C 55 % 1014,6 hPa 0,0 l/m 5,0 km/h (1 Bft) W-NW 18,4 C 28,3 C 9,7 km/h (2 Bft)
02.09.2023 16:00 29,6 C 49 % 1014,4 hPa 0,0 l/m 3,6 km/h (1 Bft) W-NW 17,7 C 29,6 C 6,1 km/h (2 Bft)
02.09.2023 17:00 29,5 C 49 % 1014,9 hPa 0,0 l/m 3,6 km/h (1 Bft) NW 17,6 C 29,5 C 6,1 km/h (2 Bft)
02.09.2023 18:00 29,7 C 46 % 1015,0 hPa 0,0 l/m 2,5 km/h (1 Bft) NW 16,8 C 29,7 C 3,6 km/h (1 Bft)
02.09.2023 19:00 29,2 C 49 % 1014,8 hPa 0,0 l/m 1,1 km/h (1 Bft) N 17,4 C 29,2 C 2,5 km/h (1 Bft)
02.09.2023 20:00 26,2 C 61 % 1014,9 hPa 0,0 l/m 0,0 km/h (0 Bft) N 18,1 C 26,2 C 0,0 km/h (0 Bft)
02.09.2023 21:00 22,4 C 76 % 1015,6 hPa 0,0 l/m 0,0 km/h (0 Bft) N 18,0 C 22,4 C 2,5 km/h (1 Bft)
02.09.2023 22:00 20,7 C 82 % 1016,5 hPa 0,0 l/m 0,0 km/h (0 Bft) N 17,5 C 20,7 C 2,5 km/h (1 Bft)
02.09.2023 23:00 20,1 C 82 % 1016,8 hPa 0,0 l/m 0,0 km/h (0 Bft) O 16,9 C 20,1 C 2,5 km/h (1 Bft)
03.09.2023 00:00 19,2 C 84 % 1017,1 hPa 0,0 l/m 1,1 km/h (1 Bft) O 16,4 C 19,2 C 2,5 km/h (1 Bft)
03.09.2023 01:00 17,1 C 92 % 1017,4 hPa 0,0 l/m 0,0 km/h (0 Bft) N 15,8 C 17,1 C 2,5 km/h (1 Bft)
03.09.2023 02:00 16,3 C 94 % 1017,4 hPa 0,0 l/m 0,0 km/h (0 Bft) N 15,3 C 16,3 C 0,0 km/h (0 Bft)
03.09.2023 03:00 16,4 C 92 % 1017,4 hPa 0,0 l/m 0,0 km/h (0 Bft) N 15,1 C 16,4 C 0,0 km/h (0 Bft)
03.09.2023 04:00 16,1 C 94 % 1018,1 hPa 0,0 l/m 0,0 km/h (0 Bft) O-NO 15,1 C 16,1 C 2,5 km/h (1 Bft)
03.09.2023 05:00 15,1 C 97 % 1018,7 hPa 0,0 l/m 1,1 km/h (1 Bft) O-NO 14,6 C 15,1 C 2,5 km/h (1 Bft)
03.09.2023 06:00 15,2 C 98 % 1018,6 hPa 0,0 l/m 1,1 km/h (1 Bft) O-NO 14,9 C 15,2 C 2,5 km/h (1 Bft)
03.09.2023 07:00 14,5 C 98 % 1019,1 hPa 0,0 l/m 1,1 km/h (1 Bft) O-NO 14,2 C 14,5 C 2,5 km/h (1 Bft)
03.09.2023 08:00 14,6 C 97 % 1019,4 hPa 0,0 l/m 1,1 km/h (1 Bft) N 14,1 C 14,6 C 3,6 km/h (1 Bft)
03.09.2023 09:00 16,4 C 95 % 1020,4 hPa 0,0 l/m 0,0 km/h (0 Bft) W 15,6 C 16,4 C 0,0 km/h (0 Bft)
03.09.2023 10:00 18,9 C 90 % 1020,6 hPa 0,0 l/m 1,1 km/h (1 Bft) W-NW 17,2 C 18,9 C 2,5 km/h (1 Bft)
03.09.2023 11:00 21,1 C 82 % 1020,8 hPa 0,0 l/m 1,1 km/h (1 Bft) W 17,9 C 21,1 C 2,5 km/h (1 Bft)
03.09.2023 12:00 22,2 C 80 % 1021,2 hPa 0,0 l/m 3,6 km/h (1 Bft) W-SW 18,6 C 22,2 C 6,1 km/h (2 Bft)
03.09.2023 13:00 23,8 C 77 % 1020,9 hPa 0,0 l/m 1,1 km/h (1 Bft) W-NW 19,5 C 23,8 C 2,5 km/h (1 Bft)
03.09.2023 14:00 25,2 C 76 % 1021,0 hPa 0,0 l/m 2,5 km/h (1 Bft) W-NW 20,7 C 25,2 C 3,6 km/h (1 Bft)
03.09.2023 15:00 27,0 C 71 % 1020,6 hPa 0,0 l/m 7,2 km/h (2 Bft) NO 21,3 C 26,8 C 11,2 km/h (2 Bft)
03.09.2023 16:00 27,5 C 66 % 1020,3 hPa 0,0 l/m 1,1 km/h (1 Bft) NO 20,6 C 27,5 C 3,6 km/h (1 Bft)
03.09.2023 17:00 27,9 C 64 % 1020,1 hPa 0,0 l/m 2,5 km/h (1 Bft) N 20,4 C 27,9 C 6,1 km/h (2 Bft)
03.09.2023 18:00 26,6 C 69 % 1019,8 hPa 0,0 l/m 5,0 km/h (1 Bft) N 20,4 C 26,6 C 9,7 km/h (2 Bft)
03.09.2023 19:00 26,4 C 71 % 1019,7 hPa 0,0 l/m 3,6 km/h (1 Bft) N 20,7 C 26,4 C 6,1 km/h (2 Bft)
03.09.2023 20:00 24,7 C 75 % 1019,7 hPa 0,0 l/m 0,0 km/h (0 Bft) N 20,0 C 24,7 C 2,5 km/h (1 Bft)
03.09.2023 21:00 21,6 C 87 % 1019,9 hPa 0,0 l/m 0,0 km/h (0 Bft) N 19,3 C 21,6 C 0,0 km/h (0 Bft)
03.09.2023 22:00 19,5 C 93 % 1020,0 hPa 0,0 l/m 0,0 km/h (0 Bft) N 18,3 C 19,5 C 2,5 km/h (1 Bft)
03.09.2023 23:00 19,2 C 93 % 1020,3 hPa 0,0 l/m 2,5 km/h (1 Bft) N 18,0 C 19,2 C 3,6 km/h (1 Bft)
Min-Datum _ 30.08.23 02.09.23 30.08.23 - 28.08.23 - 30.08.23 30.08.23 28.08.23
_ Min-Zeit 06:21 18:21 19:21 - 00:21 - 06:21 06:21 00:21
Minimum _ 10,7 C 46 % 1004,2 hPa - 0,0 km/h (0 Bft) - 10,5 C 10,7 C 0,0 km/h (0 Bft)
Max-Datum _ 02.09.23 28.08.23 03.09.23 29.08.23 31.08.23 - 03.09.23 02.09.23 31.08.23
_ Max-Zeit 18:21 22:21 12:21 06:21 13:21 - 15:21 18:21 13:21
Maximum _ 29,7 C 99 % 1021,2 hPa 3,9 l/m 13,3 km/h
S-SW (3 Bft)
- 21,3 C 29,7 C 18,4 km/h
S-SW (3 Bft)
Durchschnitt _ 17,7 C 83 % 1010,5 hPa #14,7 l/m 2,5 km/h (1 Bft) O-SO 14,4 C 17,5 C 4,5 km/h (1 Bft)
www.sexauwetter.de